Nedlloyd Valentina — A8EG9 — position and weather

sailwx.info

Track history (hours):
 
Tides and Currents Weather Stations Pressure Air Temp Water Temp Dewpoint Dewpoint Depression Visibility Wind Speed Wind Dir Waves Ship Positions

Nedlloyd Valentina

Last reported at 2018-Aug-10 11:20 UTC. Time now 2018-Aug-19 23:13 UTC.
Position N 10°16' W 076°07'.
Warning: this ship's position is 9 days out of date.

Length 210.1 m; beam 30.2 m; draft 11.5 m.

Type: Ship. MMSI: 636017971.

Date/timePositionNaut miles runAvg speedWind from/ knotsBaromVisibWave heightAir tempDewpointWater temp
2018-Aug-10 11:20N 10°16' W 076°07'  
2018-Aug-07 12:46N 10°23' W 075°31'0 0.0
2018-Aug-07 12:28N 10°23' W 075°31'0 0.0
2018-Aug-07 11:58N 10°23' W 075°31'0 0.0
2018-Aug-07 11:28N 10°23' W 075°31'0 0.0
2018-Aug-07 11:00N 10°23' W 075°31'0 0.0
2018-Aug-07 10:30N 10°23' W 075°31'0 0.0
2018-Aug-07 10:00N 10°23' W 075°31'0 0.0
2018-Aug-07 09:21N 10°23' W 075°31'0 0.0
2018-Aug-07 08:59N 10°23' W 075°31'0 0.0
2018-Aug-07 08:29N 10°23' W 075°31'0 0.0
2018-Aug-07 07:59N 10°23' W 075°31'0 0.0
2018-Aug-07 07:29N 10°23' W 075°31'0 0.0
2018-Aug-07 06:59N 10°23' W 075°31'0 0.0
2018-Aug-07 06:28N 10°23' W 075°31'0 0.0
2018-Aug-07 05:55N 10°23' W 075°31'0 0.0
2018-Aug-07 05:28N 10°23' W 075°31'0 0.0
2018-Aug-07 04:58N 10°23' W 075°31'0 0.0
2018-Aug-07 04:28N 10°23' W 075°31'0 0.0
2018-Aug-07 03:54N 10°23' W 075°31'0 0.0
2018-Aug-07 03:30N 10°23' W 075°31'0 1.0
2018-Aug-07 03:00N 10°22' W 075°31'3 6.7
2018-Aug-07 02:29N 10°20' W 075°33'4 8.4
2018-Aug-07 01:59N 10°19' W 075°37'3 6.5
2018-Aug-07 01:30N 10°19' W 075°40'5 8.9
2018-Aug-07 00:58N 10°18' W 075°45'3 7.0
2018-Aug-07 00:30N 10°17' W 075°48'11 1.0
2018-Aug-06 13:59N 10°28' W 075°50'3 6.4
2018-Aug-06 13:27N 10°29' W 075°46'711.9
2018-Aug-06 12:49N 10°35' W 075°43'  
Track history (hours):
 
Tides and Currents Weather Stations Pressure Air Temp Water Temp Dewpoint Dewpoint Depression Visibility Wind Speed Wind Dir Waves Ship Positions

Nedlloyd Valentina

Last reported at 2018-Aug-10 11:20 UTC. Time now 2018-Aug-19 23:13 UTC.
Position N 10°16' W 076°07'.
Warning: this ship's position is 9 days out of date.

Length 210.1 m; beam 30.2 m; draft 11.5 m.

Type: Ship. MMSI: 636017971.

Date/timePositionNaut miles runAvg speedWind from/ knotsBaromVisibWave heightAir tempDewpointWater temp
2018-Aug-10 11:20N 10°16' W 076°07'  
2018-Aug-07 12:46N 10°23' W 075°31'0 0.0
2018-Aug-07 12:28N 10°23' W 075°31'0 0.0
2018-Aug-07 11:58N 10°23' W 075°31'0 0.0
2018-Aug-07 11:28N 10°23' W 075°31'0 0.0
2018-Aug-07 11:00N 10°23' W 075°31'0 0.0
2018-Aug-07 10:30N 10°23' W 075°31'0 0.0
2018-Aug-07 10:00N 10°23' W 075°31'0 0.0
2018-Aug-07 09:21N 10°23' W 075°31'0 0.0
2018-Aug-07 08:59N 10°23' W 075°31'0 0.0
2018-Aug-07 08:29N 10°23' W 075°31'0 0.0
2018-Aug-07 07:59N 10°23' W 075°31'0 0.0
2018-Aug-07 07:29N 10°23' W 075°31'0 0.0
2018-Aug-07 06:59N 10°23' W 075°31'0 0.0
2018-Aug-07 06:28N 10°23' W 075°31'0 0.0
2018-Aug-07 05:55N 10°23' W 075°31'0 0.0
2018-Aug-07 05:28N 10°23' W 075°31'0 0.0
2018-Aug-07 04:58N 10°23' W 075°31'0 0.0
2018-Aug-07 04:28N 10°23' W 075°31'0 0.0
2018-Aug-07 03:54N 10°23' W 075°31'0 0.0
2018-Aug-07 03:30N 10°23' W 075°31'0 1.0
2018-Aug-07 03:00N 10°22' W 075°31'3 6.7
2018-Aug-07 02:29N 10°20' W 075°33'4 8.4
2018-Aug-07 01:59N 10°19' W 075°37'3 6.5
2018-Aug-07 01:30N 10°19' W 075°40'5 8.9
2018-Aug-07 00:58N 10°18' W 075°45'3 7.0
2018-Aug-07 00:30N 10°17' W 075°48'11 1.0
2018-Aug-06 13:59N 10°28' W 075°50'3 6.4
2018-Aug-06 13:27N 10°29' W 075°46'711.9
2018-Aug-06 12:49N 10°35' W 075°43'  

Dump ship's entire track history